createdAt,value
2022-10-04T00:01:08.258Z,15.35
2022-10-04T00:03:54.566Z,13.43
2022-10-04T00:06:25.946Z,14.23
2022-10-04T00:09:11.727Z,15.65
2022-10-04T00:11:43.444Z,12.93
2022-10-04T00:14:19.351Z,15.63
2022-10-04T00:19:18.589Z,14.90
2022-10-04T00:21:57.174Z,13.50
2022-10-04T00:24:32.143Z,11.80
2022-10-04T00:27:19.073Z,11.88
2022-10-04T00:30:13.882Z,11.20
2022-10-04T00:32:40.694Z,15.50
2022-10-04T00:35:25.737Z,12.20
2022-10-04T00:38:26.107Z,11.10
2022-10-04T00:41:00.435Z,11.77
2022-10-04T00:43:41.045Z,13.18
2022-10-04T00:46:14.474Z,13.02
2022-10-04T00:48:49.174Z,12.00
2022-10-04T00:51:35.339Z,9.95
2022-10-04T00:54:09.110Z,10.18
2022-10-04T00:56:51.620Z,10.02
2022-10-04T00:59:25.386Z,12.48
2022-10-04T01:01:58.940Z,12.02
2022-10-04T01:04:52.599Z,13.10
2022-10-04T01:07:45.441Z,10.48
2022-10-04T01:10:19.814Z,10.55
2022-10-04T01:12:51.306Z,12.57
2022-10-04T01:15:50.540Z,12.52
2022-10-04T01:18:26.464Z,12.82
2022-10-04T01:20:55.452Z,9.05
2022-10-04T01:23:42.757Z,8.38
2022-10-04T01:26:29.999Z,11.15
2022-10-04T01:29:07.372Z,15.43
2022-10-04T01:31:39.518Z,12.35
2022-10-04T01:34:07.159Z,14.05
2022-10-04T01:36:35.222Z,12.73
2022-10-04T01:39:03.265Z,13.65
2022-10-04T01:41:46.213Z,14.40
2022-10-04T01:44:23.120Z,11.93
2022-10-04T01:46:51.501Z,11.63
2022-10-04T01:49:21.663Z,14.65
2022-10-04T01:51:55.811Z,14.07
2022-10-04T01:54:36.070Z,11.05
2022-10-04T01:57:13.021Z,12.73
2022-10-04T01:59:52.325Z,11.30
2022-10-04T02:02:26.506Z,11.57
2022-10-04T02:04:56.725Z,12.02
2022-10-04T02:07:26.456Z,12.13
2022-10-04T02:09:59.583Z,13.25
2022-10-04T02:12:28.174Z,12.27
2022-10-04T02:14:56.040Z,10.48
2022-10-04T02:17:35.117Z,14.02
2022-10-04T02:20:03.696Z,13.88
2022-10-04T02:22:30.959Z,15.93
2022-10-04T02:24:58.470Z,14.27
2022-10-04T02:27:30.082Z,11.95
2022-10-04T02:30:09.550Z,14.25
2022-10-04T02:32:57.342Z,13.02
2022-10-04T02:35:36.618Z,11.02
2022-10-04T02:38:24.999Z,10.60
2022-10-04T02:41:03.386Z,10.77
2022-10-04T02:43:30.402Z,12.98
2022-10-04T02:46:12.372Z,10.82
2022-10-04T02:48:59.544Z,11.90
2022-10-04T02:51:32.249Z,12.25
2022-10-04T02:54:27.536Z,11.90
2022-10-04T02:56:58.791Z,13.45
2022-10-04T02:59:26.302Z,9.45
2022-10-04T03:01:55.184Z,11.32
2022-10-04T03:04:28.915Z,13.05
2022-10-04T03:06:57.718Z,11.35
2022-10-04T03:09:29.635Z,11.02
2022-10-04T03:11:57.178Z,10.00
2022-10-04T03:14:26.857Z,11.70
2022-10-04T03:17:00.805Z,12.30
2022-10-04T03:19:30.337Z,11.90
2022-10-04T03:22:01.458Z,10.07
2022-10-04T03:24:44.162Z,11.57
2022-10-04T03:27:33.210Z,10.18
2022-10-04T03:30:00.219Z,10.90
2022-10-04T03:32:30.605Z,10.25
2022-10-04T03:35:04.094Z,12.05
2022-10-04T03:37:37.436Z,12.98
2022-10-04T03:40:09.618Z,11.52
2022-10-04T03:42:38.017Z,9.77
2022-10-04T03:45:14.478Z,10.63
2022-10-04T03:47:48.182Z,10.90
2022-10-04T03:50:26.643Z,13.95
2022-10-04T03:53:09.859Z,11.25
2022-10-04T03:55:40.864Z,12.00
2022-10-04T03:58:11.409Z,10.88
2022-10-04T04:00:43.935Z,11.15
2022-10-04T04:03:16.852Z,11.13
2022-10-04T04:05:53.293Z,11.75
2022-10-04T04:08:28.801Z,9.00
2022-10-04T04:10:58.605Z,11.60
2022-10-04T04:13:45.058Z,8.48
2022-10-04T04:16:12.349Z,11.77
2022-10-04T04:18:43.474Z,14.27
2022-10-04T04:21:14.264Z,9.23
2022-10-04T04:23:51.284Z,12.13
2022-10-04T04:26:25.438Z,10.98
2022-10-04T04:29:03.553Z,8.25
2022-10-04T04:31:44.032Z,9.60
2022-10-04T04:34:24.890Z,11.52
2022-10-04T04:36:57.148Z,12.43
2022-10-04T04:39:41.328Z,17.00
2022-10-04T04:42:11.189Z,13.55
2022-10-04T04:44:47.026Z,13.90
2022-10-04T04:47:47.881Z,9.80
2022-10-04T04:50:24.007Z,12.85
2022-10-04T04:53:12.103Z,10.18
2022-10-04T04:56:02.687Z,10.40
2022-10-04T04:58:36.644Z,9.95
2022-10-04T05:01:08.059Z,13.73
2022-10-04T05:03:36.197Z,10.93
2022-10-04T05:06:05.127Z,10.88
2022-10-04T05:08:38.567Z,11.88
2022-10-04T05:11:08.291Z,11.18
2022-10-04T05:13:50.435Z,10.00
2022-10-04T05:16:27.074Z,13.27
2022-10-04T05:19:03.937Z,13.55
2022-10-04T05:21:32.682Z,9.50
2022-10-04T05:24:15.253Z,10.20
2022-10-04T05:26:42.976Z,10.90
2022-10-04T05:29:15.521Z,11.38
2022-10-04T05:32:15.680Z,10.65
2022-10-04T05:34:48.645Z,19.50
2022-10-04T05:37:30.431Z,11.13
2022-10-04T05:40:17.909Z,11.15
2022-10-04T05:42:50.059Z,12.20
2022-10-04T05:45:28.832Z,11.75
2022-10-04T05:48:01.710Z,12.75
2022-10-04T05:50:35.087Z,18.70
2022-10-04T05:53:20.030Z,15.73
2022-10-04T05:55:58.386Z,15.70
2022-10-04T05:58:34.375Z,15.45
2022-10-04T06:01:38.655Z,14.25
2022-10-04T06:04:14.356Z,16.10
2022-10-04T06:09:35.541Z,16.42
2022-10-04T06:12:08.266Z,15.68
2022-10-04T06:14:54.905Z,14.88
2022-10-04T06:17:29.404Z,13.38
2022-10-04T06:20:02.203Z,17.92
2022-10-04T06:22:29.194Z,18.63
2022-10-04T06:25:00.391Z,13.45
2022-10-04T06:27:47.968Z,17.40
2022-10-04T06:30:20.604Z,19.00
2022-10-04T06:33:08.233Z,14.57
2022-10-04T06:36:06.632Z,16.58
2022-10-04T06:38:39.265Z,15.90
2022-10-04T06:41:41.644Z,16.27
2022-10-04T06:44:12.683Z,15.98
2022-10-04T06:46:50.262Z,16.75
2022-10-04T06:49:40.377Z,13.90
2022-10-04T06:52:23.826Z,17.83
2022-10-04T06:55:08.971Z,15.65
2022-10-04T06:58:14.369Z,11.88
2022-10-04T07:01:19.910Z,16.73
2022-10-04T07:03:54.632Z,11.80
2022-10-04T07:06:27.822Z,14.02
2022-10-04T07:09:02.677Z,15.05
2022-10-04T07:11:43.188Z,12.93
2022-10-04T07:14:20.402Z,15.05
2022-10-04T07:16:49.369Z,15.80
2022-10-04T07:19:40.100Z,13.60
2022-10-04T07:22:06.833Z,14.18
2022-10-04T07:24:39.523Z,14.52
2022-10-04T07:27:13.339Z,14.68
2022-10-04T07:29:44.470Z,16.05
2022-10-04T07:32:27.417Z,15.50
2022-10-04T07:35:17.045Z,16.58
2022-10-04T07:38:06.065Z,15.85
2022-10-04T07:40:47.077Z,15.85
2022-10-04T07:43:27.533Z,14.02
2022-10-04T07:46:17.103Z,14.63
2022-10-04T07:48:44.049Z,13.50
2022-10-04T07:51:31.137Z,14.23
2022-10-04T07:54:16.806Z,13.00
2022-10-04T07:57:00.668Z,15.75
2022-10-04T07:59:36.619Z,15.05
2022-10-04T08:02:31.544Z,15.10
2022-10-04T08:05:17.455Z,12.07
2022-10-04T08:07:45.170Z,13.20
2022-10-04T08:10:25.767Z,13.77
2022-10-04T08:13:03.268Z,15.25
2022-10-04T08:15:41.420Z,16.13
2022-10-04T08:18:44.881Z,14.57
2022-10-04T08:21:23.398Z,16.92
2022-10-04T08:23:59.164Z,11.70
2022-10-04T08:26:56.679Z,11.38
2022-10-04T08:30:02.298Z,12.73
2022-10-04T08:33:07.712Z,15.55
2022-10-04T08:35:44.504Z,13.25
2022-10-04T08:38:49.307Z,13.00
2022-10-04T08:41:54.011Z,11.50
2022-10-04T08:45:06.612Z,14.27
2022-10-04T08:48:08.587Z,13.70
2022-10-04T08:51:17.192Z,12.35
2022-10-04T08:54:05.230Z,12.98
2022-10-04T08:57:00.073Z,14.68
2022-10-04T09:00:13.600Z,11.43
2022-10-04T09:03:16.799Z,13.23
2022-10-04T09:06:19.133Z,13.68
2022-10-04T09:08:58.105Z,12.55
2022-10-04T09:11:32.372Z,10.90
2022-10-04T09:14:08.067Z,14.43
2022-10-04T09:16:56.151Z,12.57
2022-10-04T09:19:30.972Z,13.55
2022-10-04T09:22:17.286Z,11.63
2022-10-04T09:24:53.645Z,11.15
2022-10-04T09:28:01.354Z,15.23
2022-10-04T09:30:40.041Z,8.68
2022-10-04T09:33:12.662Z,12.43
2022-10-04T09:36:07.563Z,12.93
2022-10-04T09:39:28.545Z,12.65
2022-10-04T09:42:13.124Z,11.70
2022-10-04T09:44:48.688Z,10.45
2022-10-04T09:50:41.109Z,10.43
2022-10-04T09:53:07.883Z,13.15
2022-10-04T09:55:37.720Z,10.88
2022-10-04T09:58:30.519Z,11.95
2022-10-04T10:01:17.490Z,15.40
2022-10-04T10:04:23.759Z,10.23
2022-10-04T10:07:08.645Z,8.25
2022-10-04T10:10:13.555Z,11.52
2022-10-04T10:13:39.916Z,8.80
2022-10-04T10:16:41.063Z,11.00
2022-10-04T10:19:32.474Z,10.77
2022-10-04T10:22:36.998Z,8.15
2022-10-04T10:25:12.852Z,7.78
2022-10-04T10:27:52.490Z,7.20
2022-10-04T10:30:31.248Z,10.48
2022-10-04T10:33:00.826Z,7.97
2022-10-04T10:35:55.538Z,6.93
2022-10-04T10:38:36.278Z,6.35
2022-10-04T10:41:21.225Z,5.90
2022-10-04T10:44:02.938Z,10.15
2022-10-04T10:46:42.735Z,10.65
2022-10-04T10:49:12.562Z,7.53
2022-10-04T10:51:57.925Z,9.05
2022-10-04T10:54:50.485Z,7.00
2022-10-04T10:57:55.927Z,10.40
2022-10-04T11:00:25.850Z,6.93
2022-10-04T11:03:32.220Z,5.85
2022-10-04T11:09:05.413Z,6.72
2022-10-04T11:11:50.555Z,9.38
2022-10-04T11:14:48.556Z,5.35
2022-10-04T11:17:46.617Z,7.03
2022-10-04T11:20:59.353Z,7.75
2022-10-04T11:23:58.866Z,7.75
2022-10-04T11:26:59.522Z,6.60
2022-10-04T11:29:32.391Z,7.38
2022-10-04T11:32:01.870Z,7.53
2022-10-04T11:35:01.219Z,8.02
2022-10-04T11:37:43.921Z,8.30
2022-10-04T11:40:26.396Z,8.35
2022-10-04T11:43:05.094Z,7.50
2022-10-04T11:45:50.427Z,7.78
2022-10-04T11:48:37.705Z,8.18
2022-10-04T11:51:28.860Z,9.88
2022-10-04T11:54:04.747Z,4.72
2022-10-04T11:56:50.296Z,7.85
2022-10-04T11:59:58.707Z,6.75
2022-10-04T12:02:58.618Z,5.22
2022-10-04T12:05:51.370Z,9.70
2022-10-04T12:08:39.523Z,4.68
2022-10-04T12:11:51.461Z,5.50
2022-10-04T12:14:59.600Z,6.35
2022-10-04T12:18:00.276Z,4.25
2022-10-04T12:20:53.644Z,5.35
2022-10-04T12:23:45.806Z,4.05
2022-10-04T12:26:53.877Z,6.97
2022-10-04T12:29:33.159Z,7.07
2022-10-04T12:32:09.261Z,5.25
2022-10-04T12:34:59.785Z,5.20
2022-10-04T12:37:59.091Z,4.85
2022-10-04T12:40:45.912Z,5.07
2022-10-04T12:43:50.964Z,5.57
2022-10-04T12:46:57.542Z,7.40
2022-10-04T12:49:47.942Z,4.88
2022-10-04T12:52:44.406Z,5.70
2022-10-04T12:55:57.231Z,5.25
2022-10-04T13:01:56.181Z,5.20
2022-10-04T13:04:39.725Z,8.32
2022-10-04T13:07:31.995Z,6.68
2022-10-04T13:18:29.992Z,5.75
2022-10-04T13:21:12.477Z,4.75
2022-10-04T13:24:04.229Z,6.85
2022-10-04T13:26:55.897Z,3.97
2022-10-04T13:29:44.043Z,4.95
2022-10-04T13:32:28.485Z,6.65
2022-10-04T13:35:10.685Z,5.68
2022-10-04T13:38:17.052Z,4.60
2022-10-04T13:41:17.213Z,5.15
2022-10-04T16:51:18.225Z,8.38
2022-10-04T16:54:07.184Z,7.15
2022-10-04T17:02:25.221Z,6.85
2022-10-04T17:05:39.579Z,8.45
2022-10-04T17:08:23.535Z,7.00
2022-10-04T17:17:58.085Z,10.02
2022-10-04T17:28:14.862Z,5.95
2022-10-04T17:35:11.234Z,9.38
2022-10-04T17:38:26.808Z,5.90
2022-10-04T17:40:53.913Z,7.60
2022-10-04T17:43:57.509Z,6.68
2022-10-04T17:46:39.824Z,4.95
2022-10-04T17:49:29.232Z,7.93
2022-10-04T17:52:21.531Z,8.98
2022-10-04T17:55:17.687Z,5.07
2022-10-04T17:58:07.424Z,7.25
2022-10-04T18:01:26.784Z,6.88
2022-10-04T18:04:17.213Z,6.90
2022-10-04T18:06:57.842Z,5.05
2022-10-04T18:09:27.852Z,4.47
2022-10-04T18:12:14.933Z,5.38
2022-10-04T18:15:00.302Z,5.90
2022-10-04T18:17:44.615Z,6.25
2022-10-04T18:20:27.627Z,5.10
2022-10-04T18:23:20.991Z,5.82
2022-10-04T18:25:48.965Z,6.40
2022-10-04T18:28:22.459Z,5.03
2022-10-04T18:31:01.563Z,4.93
2022-10-04T18:33:50.480Z,4.78
2022-10-04T18:36:19.370Z,5.47
2022-10-04T18:39:15.831Z,4.85
2022-10-04T18:41:52.840Z,6.72
2022-10-04T18:44:57.157Z,5.10
2022-10-04T18:47:32.463Z,5.07
2022-10-04T18:50:05.370Z,4.32
2022-10-04T18:52:53.933Z,6.60
2022-10-04T18:55:27.541Z,4.80
2022-10-04T18:58:36.554Z,5.75
2022-10-04T19:01:50.497Z,6.22
2022-10-04T19:04:34.993Z,6.35
2022-10-04T19:07:14.577Z,12.88
2022-10-04T19:10:02.578Z,6.72
2022-10-04T19:12:43.602Z,6.28
2022-10-04T19:15:27.872Z,6.97
2022-10-04T19:18:22.969Z,6.90
2022-10-04T19:21:00.597Z,8.88
2022-10-04T19:23:33.573Z,8.13
2022-10-04T19:26:31.650Z,6.65
2022-10-04T19:29:25.700Z,6.93
2022-10-04T19:32:07.763Z,6.20
2022-10-04T19:34:58.624Z,4.63
2022-10-04T19:37:40.766Z,8.68
2022-10-04T19:40:23.847Z,6.53
2022-10-04T19:43:05.891Z,9.80
2022-10-04T19:45:47.896Z,6.10
2022-10-04T19:48:24.656Z,7.18
2022-10-04T19:50:56.941Z,6.38
2022-10-04T19:53:23.836Z,7.18
2022-10-04T19:55:57.704Z,5.63
2022-10-04T19:58:40.728Z,6.43
2022-10-04T20:01:33.673Z,7.57
2022-10-04T20:04:22.053Z,7.72
2022-10-04T20:06:59.453Z,11.80
2022-10-04T20:09:41.181Z,8.95
2022-10-04T20:12:37.744Z,5.90
2022-10-04T20:15:14.990Z,5.50
2022-10-04T20:17:45.810Z,8.10
2022-10-04T20:20:43.521Z,7.88
2022-10-04T20:23:12.053Z,5.60
2022-10-04T20:25:47.413Z,4.95
2022-10-04T20:28:26.743Z,7.57
2022-10-04T20:31:01.045Z,5.95
2022-10-04T20:33:33.797Z,8.93
2022-10-04T20:36:01.669Z,10.32
2022-10-04T20:38:44.233Z,7.18
2022-10-04T20:41:29.392Z,6.60
2022-10-04T20:44:06.398Z,9.10
2022-10-04T20:46:39.386Z,6.60
2022-10-04T20:49:15.693Z,7.18
2022-10-04T20:51:53.024Z,8.55
2022-10-04T20:54:21.815Z,10.52
2022-10-04T20:56:56.971Z,8.43
2022-10-04T20:59:24.038Z,7.82
2022-10-04T21:02:02.463Z,8.10
2022-10-04T21:04:44.193Z,8.05
2022-10-04T21:07:16.641Z,9.48
2022-10-04T21:09:43.841Z,9.00
2022-10-04T21:12:35.569Z,6.65
2022-10-04T21:15:17.641Z,10.00
2022-10-04T21:17:59.478Z,11.77
2022-10-04T21:20:43.496Z,10.35
2022-10-04T21:23:17.429Z,8.73
2022-10-04T21:25:44.286Z,8.90
2022-10-04T21:28:31.953Z,7.18
2022-10-04T21:31:00.723Z,8.05
2022-10-04T21:33:27.632Z,12.50
2022-10-04T21:35:54.447Z,8.43
2022-10-04T21:38:21.237Z,9.93
2022-10-04T21:40:50.489Z,10.27
2022-10-04T21:43:17.358Z,8.45
2022-10-04T21:45:44.205Z,11.25
2022-10-04T21:48:10.965Z,11.02
2022-10-04T21:50:37.788Z,8.38
2022-10-04T21:53:04.743Z,11.43
2022-10-04T21:55:31.480Z,9.32
2022-10-04T21:57:58.450Z,11.95
2022-10-04T22:00:25.251Z,9.52
2022-10-04T22:02:52.145Z,10.82
2022-10-04T22:05:18.889Z,9.95
2022-10-04T22:07:45.619Z,10.75
2022-10-04T22:10:12.764Z,11.32
2022-10-04T22:12:50.094Z,9.70
2022-10-04T22:15:17.107Z,9.73
2022-10-04T22:21:31.378Z,12.82
2022-10-04T22:24:03.021Z,11.80
2022-10-04T22:26:37.632Z,12.80
2022-10-04T22:29:12.683Z,9.40
2022-10-04T22:34:23.268Z,12.82
2022-10-04T22:39:34.883Z,9.40
2022-10-04T22:42:09.184Z,9.02
2022-10-04T22:44:38.471Z,10.30
2022-10-04T22:53:48.200Z,12.52
2022-10-04T23:13:33.221Z,12.13
2022-10-04T23:16:26.101Z,10.30
2022-10-04T23:31:43.845Z,11.00
2022-10-04T23:37:07.840Z,10.70
2022-10-04T23:39:37.013Z,10.40
2022-10-04T23:42:26.092Z,11.38
2022-10-04T23:44:53.160Z,8.23
2022-10-04T23:47:21.550Z,13.75
2022-10-04T23:49:51.692Z,10.93
2022-10-04T23:52:26.356Z,10.52
2022-10-04T23:54:54.122Z,9.40
2022-10-04T23:57:26.922Z,15.07
2022-10-04T23:59:58.396Z,10.18
